createdAt,value
2019-01-11T00:00:52.236Z,30.53
2019-01-11T00:00:54.472Z,38.10
2019-01-11T00:01:54.467Z,36.10
2019-01-11T00:02:54.489Z,35.90
2019-01-11T00:03:20.022Z,29.70
2019-01-11T00:03:54.492Z,36.10
2019-01-11T00:04:54.528Z,36.80
2019-01-11T00:05:48.064Z,30.60
2019-01-11T00:05:54.528Z,36.40
2019-01-11T00:06:54.525Z,37.20
2019-01-11T00:07:54.562Z,36.80
2019-01-11T00:08:16.757Z,28.70
2019-01-11T00:08:54.594Z,38.80
2019-01-11T00:09:54.564Z,37.60
2019-01-11T00:10:45.088Z,29.03
2019-01-11T00:10:54.575Z,37.50
2019-01-11T00:11:54.663Z,37.80
2019-01-11T00:12:54.668Z,37.80
2019-01-11T00:13:14.047Z,31.07
2019-01-11T00:13:54.610Z,38.70
2019-01-11T00:14:54.631Z,37.90
2019-01-11T00:15:42.391Z,28.83
2019-01-11T00:15:54.737Z,38.90
2019-01-11T00:16:54.664Z,39.80
2019-01-11T00:17:54.691Z,38.80
2019-01-11T00:18:10.566Z,30.17
2019-01-11T00:18:54.694Z,38.50
2019-01-11T00:19:54.710Z,39.40
2019-01-11T00:20:38.328Z,30.57
2019-01-11T00:20:54.762Z,38.10
2019-01-11T00:21:54.745Z,39.40
2019-01-11T00:22:54.739Z,37.20
2019-01-11T00:23:06.086Z,30.33
2019-01-11T00:23:54.759Z,38.00
2019-01-11T00:24:54.767Z,38.90
2019-01-11T00:25:33.710Z,31.27
2019-01-11T00:25:54.803Z,38.10
2019-01-11T00:26:54.793Z,39.00
2019-01-11T00:27:54.813Z,39.20
2019-01-11T00:28:01.616Z,31.73
2019-01-11T00:28:54.877Z,39.40
2019-01-11T00:29:54.845Z,38.60
2019-01-11T00:30:30.171Z,31.10
2019-01-11T00:30:54.866Z,39.30
2019-01-11T00:31:54.874Z,37.60
2019-01-11T00:32:54.880Z,38.30
2019-01-11T00:32:58.183Z,32.97
2019-01-11T00:33:54.890Z,40.30
2019-01-11T00:34:54.904Z,41.70
2019-01-11T00:35:25.876Z,31.90
2019-01-11T00:35:54.955Z,42.50
2019-01-11T00:36:54.936Z,40.00
2019-01-11T00:37:53.687Z,32.40
2019-01-11T00:37:54.943Z,40.40
2019-01-11T00:38:54.964Z,40.30
2019-01-11T00:39:54.994Z,38.50
2019-01-11T00:40:21.763Z,32.07
2019-01-11T00:40:54.990Z,40.70
2019-01-11T00:41:55.051Z,42.20
2019-01-11T00:42:49.786Z,32.50
2019-01-11T00:42:55.041Z,41.40
2019-01-11T00:43:55.029Z,38.50
2019-01-11T00:44:55.080Z,39.80
2019-01-11T00:45:17.921Z,31.93
2019-01-11T00:45:55.104Z,42.10
2019-01-11T00:46:55.069Z,41.00
2019-01-11T00:47:45.968Z,31.93
2019-01-11T00:47:55.099Z,41.70
2019-01-11T00:48:55.139Z,41.00
2019-01-11T00:49:55.143Z,42.00
2019-01-11T00:50:13.737Z,35.17
2019-01-11T00:50:55.154Z,40.40
2019-01-11T00:51:55.197Z,42.60
2019-01-11T00:52:42.012Z,33.17
2019-01-11T00:52:55.174Z,40.50
2019-01-11T00:53:55.200Z,38.70
2019-01-11T00:54:55.201Z,38.50
2019-01-11T00:55:10.021Z,32.07
2019-01-11T00:55:55.193Z,38.80
2019-01-11T00:56:55.230Z,37.20
2019-01-11T00:57:38.147Z,32.93
2019-01-11T00:57:55.250Z,38.00
2019-01-11T00:58:55.246Z,40.00
2019-01-11T00:59:55.265Z,38.00
2019-01-11T01:00:08.267Z,32.83
2019-01-11T01:00:55.291Z,38.90
2019-01-11T01:01:55.303Z,38.70
2019-01-11T01:02:36.451Z,31.20
2019-01-11T01:02:55.325Z,39.70
2019-01-11T01:03:55.337Z,38.00
2019-01-11T01:04:55.338Z,38.30
2019-01-11T01:05:04.989Z,31.30
2019-01-11T01:05:55.343Z,39.10
2019-01-11T01:06:55.348Z,38.60
2019-01-11T01:07:32.814Z,31.90
2019-01-11T01:07:55.368Z,38.90
2019-01-11T01:08:55.384Z,38.10
2019-01-11T01:09:55.394Z,39.90
2019-01-11T01:10:01.220Z,31.93
2019-01-11T01:10:55.426Z,40.70
2019-01-11T01:11:55.496Z,39.70
2019-01-11T01:12:29.037Z,34.00
2019-01-11T01:12:55.431Z,38.40
2019-01-11T01:13:55.445Z,40.30
2019-01-11T01:14:55.470Z,38.60
2019-01-11T01:14:57.402Z,32.60
2019-01-11T01:15:55.505Z,39.30
2019-01-11T01:16:55.521Z,38.00
2019-01-11T01:17:25.410Z,33.90
2019-01-11T01:17:55.554Z,38.60
2019-01-11T01:18:55.556Z,38.20
2019-01-11T01:19:53.250Z,31.13
2019-01-11T01:19:55.561Z,38.00
2019-01-11T01:20:55.552Z,37.60
2019-01-11T01:21:55.572Z,38.00
2019-01-11T01:22:21.511Z,31.77
2019-01-11T01:22:55.567Z,37.50
2019-01-11T01:23:55.595Z,37.80
2019-01-11T01:24:49.280Z,30.83
2019-01-11T01:24:55.595Z,38.00
2019-01-11T01:25:55.611Z,37.90
2019-01-11T01:26:55.624Z,36.60
2019-01-11T01:27:17.062Z,32.37
2019-01-11T01:27:55.654Z,36.60
2019-01-11T01:28:55.660Z,34.90
2019-01-11T01:29:44.658Z,31.17
2019-01-11T01:29:55.679Z,35.80
2019-01-11T01:30:55.688Z,35.00
2019-01-11T01:31:55.702Z,37.10
2019-01-11T01:32:12.991Z,32.10
2019-01-11T01:32:55.754Z,34.70
2019-01-11T01:33:55.727Z,35.40
2019-01-11T01:34:40.985Z,32.03
2019-01-11T01:34:55.820Z,35.10
2019-01-11T01:35:55.749Z,36.00
2019-01-11T01:36:55.815Z,37.10
2019-01-11T01:37:11.939Z,31.93
2019-01-11T01:37:55.774Z,33.60
2019-01-11T01:38:55.811Z,34.80
2019-01-11T01:39:39.904Z,31.20
2019-01-11T01:39:55.808Z,35.20
2019-01-11T01:40:55.824Z,35.80
2019-01-11T01:41:55.854Z,33.80
2019-01-11T01:42:07.959Z,30.67
2019-01-11T01:42:55.868Z,34.90
2019-01-11T01:43:55.873Z,34.80
2019-01-11T01:44:35.795Z,32.30
2019-01-11T01:44:55.874Z,34.60
2019-01-11T01:45:55.906Z,34.10
2019-01-11T01:46:55.905Z,35.60
2019-01-11T01:47:03.848Z,31.30
2019-01-11T01:47:55.957Z,33.90
2019-01-11T01:48:55.993Z,36.20
2019-01-11T01:49:31.934Z,31.20
2019-01-11T01:49:55.969Z,35.10
2019-01-11T01:50:55.966Z,34.50
2019-01-11T01:51:55.975Z,35.00
2019-01-11T01:52:00.196Z,32.60
2019-01-11T01:52:55.990Z,34.90
2019-01-11T01:53:56.018Z,35.00
2019-01-11T01:54:28.449Z,33.17
2019-01-11T01:54:56.038Z,35.10
2019-01-11T01:55:56.043Z,35.10
2019-01-11T01:56:56.060Z,35.40
2019-01-11T01:56:56.948Z,30.70
2019-01-11T01:57:56.121Z,34.80
2019-01-11T01:58:56.081Z,34.00
2019-01-11T01:59:24.942Z,30.77
2019-01-11T01:59:56.137Z,32.70
2019-01-11T02:00:56.115Z,33.90
2019-01-11T02:01:52.988Z,32.57
2019-01-11T02:01:56.143Z,34.80
2019-01-11T02:02:56.170Z,34.00
2019-01-11T02:03:56.143Z,34.10
2019-01-11T02:04:21.158Z,30.23
2019-01-11T02:04:56.163Z,34.50
2019-01-11T02:05:56.172Z,32.70
2019-01-11T02:06:49.585Z,28.43
2019-01-11T02:06:56.231Z,33.10
2019-01-11T02:07:56.204Z,33.00
2019-01-11T02:08:56.219Z,33.90
2019-01-11T02:09:19.909Z,29.37
2019-01-11T02:09:56.245Z,34.20
2019-01-11T02:10:56.241Z,33.10
2019-01-11T02:11:49.452Z,29.37
2019-01-11T02:11:56.268Z,34.90
2019-01-11T02:12:56.275Z,35.00
2019-01-11T02:13:56.285Z,34.40
2019-01-11T02:14:17.256Z,29.67
2019-01-11T02:14:56.325Z,34.10
2019-01-11T02:15:56.350Z,34.50
2019-01-11T02:16:45.119Z,32.40
2019-01-11T02:16:56.322Z,34.60
2019-01-11T02:17:56.393Z,35.40
2019-01-11T02:18:56.367Z,36.40
2019-01-11T02:19:13.375Z,29.90
2019-01-11T02:19:56.379Z,35.70
2019-01-11T02:20:56.397Z,34.40
2019-01-11T02:21:41.515Z,31.63
2019-01-11T02:21:56.408Z,34.00
2019-01-11T02:22:56.438Z,35.90
2019-01-11T02:23:56.438Z,34.80
2019-01-11T02:24:09.313Z,26.13
2019-01-11T02:24:56.472Z,31.80
2019-01-11T02:25:56.467Z,26.40
2019-01-11T02:26:38.396Z,23.43
2019-01-11T02:26:56.460Z,24.90
2019-01-11T02:27:56.494Z,25.20
2019-01-11T02:28:56.502Z,25.50
2019-01-11T02:29:06.384Z,22.90
2019-01-11T02:29:56.510Z,24.50
2019-01-11T02:30:56.592Z,24.40
2019-01-11T02:31:34.370Z,22.37
2019-01-11T02:31:56.534Z,25.80
2019-01-11T02:32:56.557Z,25.40
2019-01-11T02:33:56.567Z,28.00
2019-01-11T02:34:01.963Z,23.53
2019-01-11T02:34:56.590Z,28.40
2019-01-11T02:35:56.600Z,27.20
2019-01-11T02:36:29.897Z,24.20
2019-01-11T02:36:56.610Z,29.60
2019-01-11T02:37:56.624Z,28.20
2019-01-11T02:38:56.663Z,29.00
2019-01-11T02:39:00.592Z,23.37
2019-01-11T02:39:56.678Z,29.10
2019-01-11T02:40:56.735Z,27.00
2019-01-11T02:41:28.667Z,23.17
2019-01-11T02:41:56.682Z,27.20
2019-01-11T02:42:56.692Z,28.30
2019-01-11T02:43:56.433Z,25.47
2019-01-11T02:43:56.708Z,28.40
2019-01-11T02:44:56.734Z,29.90
2019-01-11T02:45:56.729Z,29.10
2019-01-11T02:46:25.070Z,25.13
2019-01-11T02:46:56.745Z,30.40
2019-01-11T02:47:56.837Z,29.60
2019-01-11T02:48:53.903Z,25.10
2019-01-11T02:48:56.779Z,27.80
2019-01-11T02:49:56.825Z,27.40
2019-01-11T02:50:56.818Z,27.80
2019-01-11T02:51:21.905Z,22.20
2019-01-11T02:51:56.852Z,27.90
2019-01-11T02:52:56.924Z,26.00
2019-01-11T02:53:50.048Z,23.40
2019-01-11T02:53:56.901Z,25.30
2019-01-11T02:54:56.854Z,28.10
2019-01-11T02:55:56.870Z,30.00
2019-01-11T02:56:18.111Z,25.00
2019-01-11T02:56:56.902Z,28.50
2019-01-11T02:57:56.906Z,30.90
2019-01-11T02:58:46.178Z,26.13
2019-01-11T02:58:56.931Z,29.40
2019-01-11T02:59:56.938Z,30.90
2019-01-11T03:00:56.945Z,29.70
2019-01-11T03:01:13.876Z,25.87
2019-01-11T03:01:56.985Z,29.50
2019-01-11T03:02:56.976Z,30.00
2019-01-11T03:03:41.607Z,23.53
2019-01-11T03:03:56.996Z,30.20
2019-01-11T03:04:56.988Z,29.40
2019-01-11T03:05:57.026Z,30.70
2019-01-11T03:06:09.768Z,27.17
2019-01-11T03:06:57.039Z,29.20
2019-01-11T03:07:57.081Z,29.70
2019-01-11T03:08:37.355Z,23.93
2019-01-11T03:08:57.049Z,27.50
2019-01-11T03:09:57.102Z,27.90
2019-01-11T03:10:57.097Z,29.20
2019-01-11T03:11:05.690Z,23.30
2019-01-11T03:11:57.087Z,27.70
2019-01-11T03:12:57.118Z,27.60
2019-01-11T03:13:33.737Z,22.27
2019-01-11T03:13:57.129Z,26.80
2019-01-11T03:14:57.204Z,26.90
2019-01-11T03:15:57.163Z,26.60
2019-01-11T03:16:01.647Z,22.27
2019-01-11T03:16:57.165Z,26.20
2019-01-11T03:17:57.184Z,26.70
2019-01-11T03:18:29.507Z,24.77
2019-01-11T03:18:57.214Z,26.70
2019-01-11T03:19:57.361Z,26.70
2019-01-11T03:20:57.254Z,26.80
2019-01-11T03:20:57.683Z,23.40
2019-01-11T03:21:57.242Z,27.50
2019-01-11T03:22:57.245Z,25.20
2019-01-11T03:23:25.683Z,22.50
2019-01-11T03:23:57.299Z,25.10
2019-01-11T03:24:57.276Z,26.00
2019-01-11T03:25:53.512Z,20.77
2019-01-11T03:25:57.291Z,25.10
2019-01-11T03:26:57.296Z,24.50
2019-01-11T03:27:57.315Z,23.90
2019-01-11T03:28:21.526Z,22.00
2019-01-11T03:28:57.325Z,24.30
2019-01-11T03:29:57.360Z,23.10
2019-01-11T03:30:49.664Z,22.73
2019-01-11T03:30:57.362Z,22.70
2019-01-11T03:31:57.380Z,25.00
2019-01-11T03:32:57.406Z,24.80
2019-01-11T03:33:17.633Z,20.57
2019-01-11T03:33:57.421Z,22.60
2019-01-11T03:34:57.409Z,22.30
2019-01-11T03:35:46.417Z,19.63
2019-01-11T03:35:57.434Z,21.10
2019-01-11T03:36:57.445Z,21.20
2019-01-11T03:37:57.462Z,22.60
2019-01-11T03:38:14.296Z,20.10
2019-01-11T03:38:57.475Z,22.10
2019-01-11T03:39:58.137Z,21.70
2019-01-11T03:40:42.137Z,19.23
2019-01-11T03:40:57.507Z,21.60
2019-01-11T03:41:57.519Z,20.50
2019-01-11T03:42:57.527Z,20.80
2019-01-11T03:43:10.123Z,19.47
2019-01-11T03:43:57.539Z,20.40
2019-01-11T03:44:57.551Z,21.20
2019-01-11T03:45:38.172Z,20.03
2019-01-11T03:45:57.566Z,20.40
2019-01-11T03:46:57.630Z,21.50
2019-01-11T03:47:57.715Z,23.30
2019-01-11T03:48:06.259Z,20.57
2019-01-11T03:48:57.646Z,24.20
2019-01-11T03:49:57.646Z,26.30
2019-01-11T03:50:33.975Z,22.93
2019-01-11T03:50:57.648Z,25.60
2019-01-11T03:51:57.647Z,25.20
2019-01-11T03:52:57.722Z,25.80
2019-01-11T03:53:02.002Z,22.40
2019-01-11T03:53:57.676Z,27.20
2019-01-11T03:54:57.733Z,28.00
2019-01-11T03:55:29.787Z,22.67
2019-01-11T03:55:57.733Z,26.70
2019-01-11T03:56:57.808Z,29.50
2019-01-11T03:57:57.825Z,30.90
2019-01-11T03:57:57.943Z,24.03
2019-01-11T03:58:57.764Z,31.70
2019-01-11T03:59:57.767Z,30.80
2019-01-11T04:00:25.980Z,23.53
2019-01-11T04:00:57.770Z,31.40
2019-01-11T04:01:57.819Z,27.00
2019-01-11T04:02:54.076Z,22.47
2019-01-11T04:02:57.889Z,26.70
2019-01-11T04:03:57.816Z,26.40
2019-01-11T04:04:57.881Z,25.00
2019-01-11T04:05:22.347Z,22.13
2019-01-11T04:05:57.854Z,24.10
2019-01-11T04:06:57.855Z,24.80
2019-01-11T04:07:50.741Z,23.00
2019-01-11T04:07:57.954Z,24.60
2019-01-11T04:08:57.916Z,26.00
2019-01-11T04:09:57.919Z,26.00
2019-01-11T04:10:22.358Z,22.30
2019-01-11T04:10:57.911Z,26.50
2019-01-11T04:11:57.941Z,25.80
2019-01-11T04:12:50.465Z,22.23
2019-01-11T04:12:57.975Z,26.60
2019-01-11T04:13:57.961Z,25.70
2019-01-11T04:14:58.015Z,25.00
2019-01-11T04:15:18.524Z,22.57
2019-01-11T04:15:57.977Z,27.30
2019-01-11T04:16:58.011Z,27.80
2019-01-11T04:17:51.283Z,23.83
2019-01-11T04:17:58.075Z,26.90
2019-01-11T04:18:58.038Z,26.40
2019-01-11T04:20:01.956Z,26.00
2019-01-11T04:20:18.938Z,23.63
2019-01-11T04:20:58.051Z,25.60
2019-01-11T04:21:58.073Z,25.80
2019-01-11T04:22:50.290Z,22.83
2019-01-11T04:22:58.090Z,25.20
2019-01-11T04:23:58.097Z,25.80
2019-01-11T04:24:58.148Z,25.60
2019-01-11T04:25:26.201Z,21.77
2019-01-11T04:25:58.130Z,26.10
2019-01-11T04:26:58.152Z,26.40
2019-01-11T04:27:53.789Z,22.20
2019-01-11T04:27:58.142Z,25.30
2019-01-11T04:28:58.160Z,24.70
2019-01-11T04:29:58.174Z,25.20
2019-01-11T04:30:22.591Z,22.10
2019-01-11T04:30:58.208Z,25.10
2019-01-11T04:31:58.203Z,24.00
2019-01-11T04:32:50.147Z,22.50
2019-01-11T04:32:58.224Z,23.70
2019-01-11T04:33:58.240Z,23.60
2019-01-11T04:34:58.247Z,24.50
2019-01-11T04:35:18.301Z,20.53
2019-01-11T04:35:58.265Z,21.80
2019-01-11T04:36:58.326Z,22.30
2019-01-11T04:37:46.706Z,20.40
2019-01-11T04:37:58.325Z,21.60
2019-01-11T04:38:58.310Z,22.50
2019-01-11T04:39:58.319Z,20.90
2019-01-11T04:40:15.702Z,20.73
2019-01-11T04:40:58.351Z,23.40
2019-01-11T04:41:58.375Z,20.70
2019-01-11T04:42:43.877Z,29.43
2019-01-11T04:42:58.394Z,22.00
2019-01-11T04:43:58.379Z,32.60
2019-01-11T04:44:58.399Z,35.60
2019-01-11T04:45:11.579Z,18.50
2019-01-11T04:45:58.401Z,25.80
2019-01-11T04:46:58.432Z,19.60
2019-01-11T04:47:39.500Z,18.53
2019-01-11T04:47:58.442Z,18.80
2019-01-11T04:48:58.458Z,18.60
2019-01-11T04:49:58.455Z,19.10
2019-01-11T04:50:09.583Z,18.03
2019-01-11T04:50:58.473Z,19.40
2019-01-11T04:51:58.482Z,19.90
2019-01-11T04:52:37.690Z,17.93
2019-01-11T04:52:58.559Z,19.90
2019-01-11T04:53:58.514Z,19.30
2019-01-11T04:54:58.528Z,19.40
2019-01-11T04:55:06.795Z,17.77
2019-01-11T04:55:58.540Z,19.30
2019-01-11T04:56:58.685Z,20.20
2019-01-11T04:57:34.949Z,18.40
2019-01-11T04:57:58.582Z,20.60
2019-01-11T04:58:58.582Z,20.90
2019-01-11T04:59:58.615Z,20.70
2019-01-11T05:00:03.687Z,20.33
2019-01-11T05:00:58.615Z,20.10
2019-01-11T05:01:58.635Z,20.50
2019-01-11T05:02:32.061Z,16.30
2019-01-11T05:02:58.640Z,18.80
2019-01-11T05:03:58.705Z,17.60
2019-01-11T05:04:58.788Z,18.00
2019-01-11T05:04:59.968Z,17.20
2019-01-11T05:05:58.695Z,18.10
2019-01-11T05:06:58.697Z,18.00
2019-01-11T05:07:28.123Z,18.23
2019-01-11T05:07:58.744Z,17.10
2019-01-11T05:08:58.722Z,16.20
2019-01-11T05:09:55.944Z,16.23
2019-01-11T05:09:58.779Z,16.40
2019-01-11T05:10:58.774Z,16.40
2019-01-11T05:11:58.771Z,17.10
2019-01-11T05:12:23.978Z,15.97
2019-01-11T05:12:58.799Z,15.80
2019-01-11T05:13:58.794Z,16.10
2019-01-11T05:14:51.964Z,15.87
2019-01-11T05:14:58.817Z,16.40
2019-01-11T05:15:58.845Z,16.00
2019-01-11T05:16:58.864Z,16.00
2019-01-11T05:17:19.879Z,15.83
2019-01-11T05:17:58.866Z,16.30
2019-01-11T05:18:58.872Z,15.90
2019-01-11T05:19:47.469Z,14.63
2019-01-11T05:19:58.901Z,14.50
2019-01-11T05:20:58.901Z,14.20
2019-01-11T05:21:58.940Z,14.30
2019-01-11T05:22:15.744Z,14.03
2019-01-11T05:22:58.927Z,13.60
2019-01-11T05:23:58.964Z,14.20
2019-01-11T05:24:43.686Z,12.57
2019-01-11T05:24:58.985Z,13.60
2019-01-11T05:25:58.984Z,13.00
2019-01-11T05:26:59.031Z,12.80
2019-01-11T05:27:12.566Z,13.90
2019-01-11T05:27:59.039Z,13.40
2019-01-11T05:28:59.051Z,13.20
2019-01-11T05:29:41.321Z,12.30
2019-01-11T05:29:59.056Z,13.30
2019-01-11T05:30:59.046Z,12.70
2019-01-11T05:31:59.059Z,13.20
2019-01-11T05:32:09.595Z,13.53
2019-01-11T05:32:59.072Z,13.40
2019-01-11T05:33:59.086Z,13.40
2019-01-11T05:34:37.558Z,13.90
2019-01-11T05:34:59.129Z,13.00
2019-01-11T05:35:59.125Z,13.00
2019-01-11T05:36:59.123Z,12.20
2019-01-11T05:37:05.907Z,12.83
2019-01-11T05:37:59.175Z,12.90
2019-01-11T05:38:59.175Z,12.40
2019-01-11T05:39:34.081Z,12.10
2019-01-11T05:39:59.188Z,12.60
2019-01-11T05:40:59.185Z,12.20
2019-01-11T05:41:59.209Z,12.00
2019-01-11T05:42:01.999Z,11.77
2019-01-11T05:42:59.211Z,11.80
2019-01-11T05:43:59.232Z,12.50
2019-01-11T05:44:30.218Z,12.00
2019-01-11T05:44:59.250Z,12.40
2019-01-11T05:45:59.328Z,11.80
2019-01-11T05:46:59.281Z,13.00
2019-01-11T05:47:00.672Z,11.90
2019-01-11T05:47:59.317Z,13.00
2019-01-11T05:48:59.311Z,13.40
2019-01-11T05:49:28.532Z,12.20
2019-01-11T05:49:59.327Z,12.30
2019-01-11T05:50:59.349Z,13.30
2019-01-11T05:51:55.983Z,12.63
2019-01-11T05:51:59.345Z,13.50
2019-01-11T05:52:59.364Z,13.90
2019-01-11T05:53:59.430Z,13.40
2019-01-11T05:54:24.646Z,12.87
2019-01-11T05:54:59.387Z,13.50
2019-01-11T05:55:59.402Z,12.80
2019-01-11T05:56:52.204Z,12.50
2019-01-11T05:56:59.414Z,14.00
2019-01-11T05:57:59.436Z,13.60
2019-01-11T05:58:59.442Z,13.00
2019-01-11T05:59:20.312Z,11.73
2019-01-11T05:59:59.522Z,12.10
2019-01-11T06:00:59.476Z,13.10
2019-01-11T06:01:48.669Z,11.90
2019-01-11T06:01:59.500Z,12.00
2019-01-11T06:02:59.509Z,12.60
2019-01-11T06:03:59.515Z,12.60
2019-01-11T06:04:36.388Z,11.17
2019-01-11T06:04:59.583Z,13.10
2019-01-11T06:05:59.561Z,12.80
2019-01-11T06:06:59.558Z,13.00
2019-01-11T06:07:20.759Z,11.30
2019-01-11T06:07:59.624Z,12.00
2019-01-11T06:08:59.654Z,12.00
2019-01-11T06:09:49.279Z,10.83
2019-01-11T06:09:59.682Z,11.30
2019-01-11T06:10:59.634Z,10.60
2019-01-11T06:11:59.648Z,11.10
2019-01-11T06:12:17.254Z,10.63
2019-01-11T06:12:59.725Z,11.00
2019-01-11T06:13:59.662Z,11.50
2019-01-11T06:14:45.910Z,10.93
2019-01-11T06:14:59.772Z,11.70
2019-01-11T06:15:59.698Z,12.30
2019-01-11T06:16:59.706Z,12.90
2019-01-11T06:17:13.731Z,12.20
2019-01-11T06:17:59.791Z,12.10
2019-01-11T06:18:59.732Z,12.00
2019-01-11T06:19:41.636Z,11.13
2019-01-11T06:19:59.836Z,12.00
2019-01-11T06:20:59.807Z,12.20
2019-01-11T06:21:59.790Z,12.30
2019-01-11T06:22:09.675Z,10.90
2019-01-11T06:22:59.788Z,11.80
2019-01-11T06:23:59.804Z,11.90
2019-01-11T06:24:37.659Z,10.70
2019-01-11T06:24:59.817Z,12.10
2019-01-11T06:25:59.964Z,12.10
2019-01-11T06:26:59.885Z,11.30
2019-01-11T06:27:05.954Z,10.50
2019-01-11T06:27:59.860Z,11.50
2019-01-11T06:28:59.881Z,12.20
2019-01-11T06:29:33.551Z,11.13
2019-01-11T06:29:59.890Z,12.20
2019-01-11T06:30:59.908Z,11.90
2019-01-11T06:31:59.959Z,11.90
2019-01-11T06:32:01.544Z,10.77
2019-01-11T06:32:59.991Z,11.40
2019-01-11T06:33:59.958Z,11.50
2019-01-11T06:34:29.404Z,10.47
2019-01-11T06:34:59.982Z,10.80
2019-01-11T06:35:59.998Z,11.20
2019-01-11T06:36:57.575Z,9.93
2019-01-11T06:36:59.994Z,10.40
2019-01-11T06:38:00.034Z,10.90
2019-01-11T06:39:00.031Z,10.10
2019-01-11T06:39:25.240Z,10.20
2019-01-11T06:40:00.224Z,11.30
2019-01-11T06:41:00.046Z,11.10
2019-01-11T06:41:55.865Z,9.40
2019-01-11T06:42:00.065Z,10.80
2019-01-11T06:43:03.470Z,9.60
2019-01-11T06:44:00.091Z,10.10
2019-01-11T06:44:23.626Z,9.10
2019-01-11T06:45:00.221Z,9.00
2019-01-11T06:46:00.153Z,9.10
2019-01-11T06:46:51.317Z,9.00
2019-01-11T06:47:00.158Z,8.90
2019-01-11T06:48:00.174Z,8.10
2019-01-11T06:49:00.175Z,8.20
2019-01-11T06:49:20.131Z,8.70
2019-01-11T06:50:00.249Z,8.00
2019-01-11T06:51:00.191Z,7.90
2019-01-11T06:51:48.253Z,8.00
2019-01-11T06:52:00.244Z,7.50
2019-01-11T06:53:00.221Z,7.80
2019-01-11T06:54:00.234Z,8.00
2019-01-11T06:54:16.272Z,8.00
2019-01-11T06:55:00.253Z,8.00
2019-01-11T06:56:00.298Z,8.00
2019-01-11T06:56:45.078Z,7.60
2019-01-11T06:57:00.383Z,7.80
2019-01-11T06:58:00.307Z,8.40
2019-01-11T06:59:00.340Z,8.50
2019-01-11T06:59:13.182Z,8.80
2019-01-11T07:00:00.365Z,7.50
2019-01-11T07:01:00.353Z,7.50
2019-01-11T07:01:40.896Z,8.83
2019-01-11T07:02:00.351Z,8.10
2019-01-11T07:03:00.360Z,9.00
2019-01-11T07:04:00.383Z,8.60
2019-01-11T07:04:09.159Z,8.10
2019-01-11T07:05:00.396Z,8.20
2019-01-11T07:06:00.433Z,7.90
2019-01-11T07:06:38.182Z,10.33
2019-01-11T07:07:00.435Z,8.20
2019-01-11T07:08:00.465Z,10.30
2019-01-11T07:09:00.457Z,12.20
2019-01-11T07:09:07.315Z,11.77
2019-01-11T07:10:00.464Z,11.80
2019-01-11T07:11:00.533Z,10.60
2019-01-11T07:11:35.515Z,9.73
2019-01-11T07:12:00.509Z,9.00
2019-01-11T07:13:00.518Z,8.70
2019-01-11T07:14:00.526Z,9.30
2019-01-11T07:14:03.374Z,9.57
2019-01-11T07:15:00.546Z,9.10
2019-01-11T07:16:00.560Z,9.30
2019-01-11T07:16:31.617Z,10.30
2019-01-11T07:17:00.632Z,10.20
2019-01-11T07:18:00.612Z,9.80
2019-01-11T07:18:59.136Z,9.80
2019-01-11T07:19:00.594Z,9.80
2019-01-11T07:20:05.521Z,9.70
2019-01-11T07:21:00.625Z,10.10
2019-01-11T07:21:27.751Z,10.87
2019-01-11T07:22:00.646Z,10.30
2019-01-11T07:23:00.669Z,9.60
2019-01-11T07:23:56.689Z,8.83
2019-01-11T07:24:01.081Z,8.70
2019-01-11T07:25:00.682Z,9.10
2019-01-11T07:26:00.718Z,9.60
2019-01-11T07:26:24.698Z,9.47
2019-01-11T07:27:00.753Z,9.20
2019-01-11T07:28:00.780Z,9.10
2019-01-11T07:28:53.268Z,9.30
2019-01-11T07:29:00.740Z,9.80
2019-01-11T07:30:00.778Z,8.90
2019-01-11T07:31:00.818Z,9.60
2019-01-11T07:31:24.500Z,9.83
2019-01-11T07:32:00.782Z,11.70
2019-01-11T07:33:00.823Z,10.00
2019-01-11T07:34:00.828Z,9.50
2019-01-11T07:34:11.526Z,9.07
2019-01-11T07:35:00.839Z,9.90
2019-01-11T07:36:00.970Z,9.60
2019-01-11T07:36:59.075Z,9.17
2019-01-11T07:37:00.886Z,10.00
2019-01-11T07:38:00.880Z,9.50
2019-01-11T07:39:00.918Z,10.10
2019-01-11T07:39:28.797Z,10.70
2019-01-11T07:40:00.955Z,10.00
2019-01-11T07:41:00.924Z,10.60
2019-01-11T07:42:00.930Z,10.40
2019-01-11T07:42:01.877Z,10.07
2019-01-11T07:43:01.018Z,10.60
2019-01-11T07:44:00.980Z,10.90
2019-01-11T07:44:29.837Z,12.00
2019-01-11T07:45:01.026Z,10.40
2019-01-11T07:46:01.007Z,11.70
2019-01-11T07:46:58.554Z,11.70
2019-01-11T07:47:01.015Z,11.00
2019-01-11T07:48:01.035Z,11.50
2019-01-11T07:49:01.104Z,11.90
2019-01-11T07:49:26.709Z,11.87
2019-01-11T07:50:01.105Z,11.40
2019-01-11T07:51:01.061Z,12.00
2019-01-11T07:51:54.417Z,11.63
2019-01-11T07:52:01.072Z,11.60
2019-01-11T07:53:01.112Z,11.70
2019-01-11T07:54:01.110Z,11.90
2019-01-11T07:54:22.848Z,11.40
2019-01-11T07:55:01.142Z,11.50
2019-01-11T07:56:01.151Z,11.10
2019-01-11T07:56:52.730Z,11.57
2019-01-11T07:57:01.197Z,11.40
2019-01-11T07:58:01.162Z,12.00
2019-01-11T07:59:01.420Z,12.00
2019-01-11T07:59:21.175Z,11.07
2019-01-11T08:00:01.227Z,10.60
2019-01-11T08:01:01.205Z,11.10
2019-01-11T08:01:49.503Z,11.80
2019-01-11T08:02:01.227Z,11.20
2019-01-11T08:03:01.261Z,12.00
2019-01-11T08:04:01.251Z,11.60
2019-01-11T08:04:17.495Z,11.50
2019-01-11T08:05:01.278Z,12.50
2019-01-11T08:06:01.310Z,12.40
2019-01-11T08:06:46.425Z,12.37
2019-01-11T08:07:01.303Z,12.10
2019-01-11T08:08:01.335Z,12.10
2019-01-11T08:09:01.342Z,12.40
2019-01-11T08:09:14.337Z,11.73
2019-01-11T08:10:01.347Z,11.70
2019-01-11T08:11:01.367Z,12.40
2019-01-11T08:11:42.304Z,11.77
2019-01-11T08:12:01.419Z,11.80
2019-01-11T08:13:01.383Z,11.80
2019-01-11T08:14:01.402Z,12.20
2019-01-11T08:14:09.991Z,10.93
2019-01-11T08:15:01.438Z,11.70
2019-01-11T08:16:01.430Z,12.70
2019-01-11T08:16:37.570Z,10.97
2019-01-11T08:17:01.448Z,12.40
2019-01-11T08:18:01.485Z,12.40
2019-01-11T08:19:01.488Z,13.10
2019-01-11T08:19:05.790Z,12.47
2019-01-11T08:20:01.491Z,13.40
2019-01-11T08:21:01.517Z,12.80
2019-01-11T08:21:33.288Z,12.03
2019-01-11T08:22:01.519Z,12.30
2019-01-11T08:23:01.541Z,12.30
2019-01-11T08:24:01.219Z,12.10
2019-01-11T08:24:01.563Z,13.30
2019-01-11T08:25:01.559Z,12.80
2019-01-11T08:26:01.598Z,12.60
2019-01-11T08:26:29.020Z,12.97
2019-01-11T08:27:01.590Z,12.30
2019-01-11T08:28:01.604Z,13.60
2019-01-11T08:28:56.856Z,12.47
2019-01-11T08:29:01.622Z,16.00
2019-01-11T08:30:01.630Z,12.80
2019-01-11T08:31:01.698Z,13.30
2019-01-11T08:31:24.509Z,13.13
2019-01-11T08:32:01.662Z,14.20
2019-01-11T08:33:01.693Z,16.70
2019-01-11T08:33:52.134Z,14.77
2019-01-11T08:34:01.691Z,16.00
2019-01-11T08:35:01.761Z,17.40
2019-01-11T08:36:01.761Z,16.00
2019-01-11T08:36:19.831Z,15.57
2019-01-11T08:37:01.734Z,18.00
2019-01-11T08:38:01.746Z,16.10
2019-01-11T08:38:47.766Z,13.17
2019-01-11T08:39:01.773Z,14.20
2019-01-11T08:40:01.777Z,14.20
2019-01-11T08:41:01.796Z,12.80
2019-01-11T08:41:15.582Z,10.50
2019-01-11T08:42:01.815Z,13.50
2019-01-11T08:43:01.834Z,13.50
2019-01-11T08:43:43.347Z,11.57
2019-01-11T08:44:01.840Z,13.70
2019-01-11T08:45:01.870Z,13.20
2019-01-11T08:46:01.862Z,13.30
2019-01-11T08:46:11.739Z,12.93
2019-01-11T08:47:01.878Z,13.30
2019-01-11T08:48:01.903Z,13.10
2019-01-11T08:48:39.556Z,12.40
2019-01-11T08:49:01.921Z,13.50
2019-01-11T08:50:01.980Z,13.80
2019-01-11T08:51:02.747Z,13.40
2019-01-11T08:51:07.435Z,12.43
2019-01-11T08:52:01.953Z,12.90
2019-01-11T08:53:01.965Z,13.30
2019-01-11T08:53:35.337Z,13.03
2019-01-11T08:54:02.009Z,14.30
2019-01-11T08:55:01.994Z,37.20
2019-01-11T08:56:08.090Z,19.00
2019-01-11T08:56:08.251Z,17.00
2019-01-11T08:57:02.028Z,18.70
2019-01-11T08:58:02.070Z,14.30
2019-01-11T08:58:33.583Z,13.13
2019-01-11T08:59:02.054Z,14.00
2019-01-11T09:00:02.070Z,12.90
2019-01-11T09:01:01.246Z,12.63
2019-01-11T09:01:02.081Z,13.80
2019-01-11T09:02:02.092Z,13.30
2019-01-11T09:03:02.106Z,13.70
2019-01-11T09:03:29.378Z,11.53
2019-01-11T09:04:02.141Z,12.70
2019-01-11T09:05:02.138Z,11.90
2019-01-11T09:05:57.585Z,12.57
2019-01-11T09:06:02.160Z,13.00
2019-01-11T09:07:02.214Z,12.80
2019-01-11T09:08:02.181Z,12.30
2019-01-11T09:08:25.302Z,12.90
2019-01-11T09:09:02.194Z,12.60
2019-01-11T09:10:02.218Z,12.30
2019-01-11T09:10:53.421Z,12.77
2019-01-11T09:11:02.247Z,13.30
2019-01-11T09:12:02.262Z,13.30